Last 24 Hours

UH Manoa Atmospheric Sciences

15 Minute Data | Pacific/Honolulu
as of 8/12/22 4:28 PM HST
Station Date Time Temp (°F) RH (%) Dew Pt (°F) Wind Spd (mph) Wind Dir (°) Wind Gust (mph) Latest Rain (In) Solar Rad (W/m2) Heat Index (°F) Barometric Press (inHg) Daily Rain (In) Daily Min Temp (°F) Daily Max Temp (°F) Daily Max Wind (mph)
UH Manoa Atmospheric Sciences 8/12/22 1615 81.1 63 67.4 11.6 NE | 43 20.7 0.00 422 83.7 30.02 0.00 77.2 84.9 28.4
UH Manoa Atmospheric Sciences 8/12/22 1600 81.2 64 67.8 10.7 NE | 39 19.1 0.00 257 83.9 30.02 0.00 77.2 84.9 28.4
UH Manoa Atmospheric Sciences 8/12/22 1545 82.0 65 68.9 13.9 NE | 43 28.4 0.00 810 85.3 30.02 0.00 77.2 84.9 28.4
UH Manoa Atmospheric Sciences 8/12/22 1530 82.0 63 68.4 13.0 NE | 34 23.8 0.00 808 85.1 30.02 0.00 77.2 84.9 27.0
UH Manoa Atmospheric Sciences 8/12/22 1515 81.6 65 68.8 12.1 NE | 43 24.7 0.00 875 84.8 30.03 0.00 77.2 84.9 27.0
UH Manoa Atmospheric Sciences 8/12/22 1500 81.8 65 69.0 16.0 NE | 37 25.9 0.00 905 85.1 30.03 0.00 77.2 84.9 27.0
UH Manoa Atmospheric Sciences 8/12/22 1445 82.8 60 67.6 13.7 NE | 38 26.2 0.00 889 85.6 30.03 0.00 77.2 84.9 27.0
UH Manoa Atmospheric Sciences 8/12/22 1430 82.7 58 66.4 13.4 NE | 42 24.5 0.00 909 85.0 30.04 0.00 77.2 84.9 27.0
UH Manoa Atmospheric Sciences 8/12/22 1415 82.8 58 66.6 14.3 NE | 42 23.6 0.00 933 85.2 30.04 0.00 77.2 84.9 27.0
UH Manoa Atmospheric Sciences 8/12/22 1400 82.9 58 66.7 13.2 NE | 41 24.8 0.00 958 85.4 30.04 0.00 77.2 84.9 27.0
UH Manoa Atmospheric Sciences 8/12/22 1345 82.8 59 67.2 14.0 NE | 42 27.0 0.00 982 85.4 30.04 0.00 77.2 84.9 27.0
UH Manoa Atmospheric Sciences 8/12/22 1330 83.2 60 67.7 11.6 NE | 40 23.5 0.00 1,022 86.1 30.05 0.00 77.2 84.9 26.8
UH Manoa Atmospheric Sciences 8/12/22 1315 82.8 60 67.7 13.7 NE | 38 26.8 0.00 1,021 85.7 30.05 0.00 77.2 84.9 26.8
UH Manoa Atmospheric Sciences 8/12/22 1300 83.4 59 67.5 10.7 NE | 44 22.7 0.00 1,026 86.3 30.06 0.00 77.2 84.9 26.0
UH Manoa Atmospheric Sciences 8/12/22 1245 83.5 57 66.8 12.3 NE | 42 24.9 0.00 1,039 86.0 30.07 0.00 77.2 84.9 26.0
UH Manoa Atmospheric Sciences 8/12/22 1230 82.7 59 66.8 14.0 NE | 42 22.4 0.00 1,023 85.1 30.07 0.00 77.2 84.5 26.0
UH Manoa Atmospheric Sciences 8/12/22 1215 83.2 57 66.5 11.5 NE | 46 23.2 0.00 1,003 85.6 30.07 0.00 77.2 84.5 26.0
UH Manoa Atmospheric Sciences 8/12/22 1200 82.8 58 66.4 13.8 NE | 42 23.4 0.00 970 85.1 30.07 0.00 77.2 84.5 26.0
UH Manoa Atmospheric Sciences 8/12/22 1145 83.1 57 66.5 10.8 NE | 44 19.2 0.00 968 85.5 30.08 0.00 77.2 84.5 26.0
UH Manoa Atmospheric Sciences 8/12/22 1130 82.4 59 66.8 14.3 NE | 41 26.0 0.00 970 84.8 30.08 0.00 77.2 84.5 26.0
UH Manoa Atmospheric Sciences 8/12/22 1115 82.5 60 67.4 12.7 NE | 38 21.9 0.00 926 85.2 30.09 0.00 77.2 84.5 21.9
UH Manoa Atmospheric Sciences 8/12/22 1100 82.5 61 67.5 10.1 NE | 45 19.2 0.00 896 85.2 30.09 0.00 77.2 84.5 21.5
UH Manoa Atmospheric Sciences 8/12/22 1045 82.4 60 67.2 9.7 NE | 46 18.2 0.00 852 85.0 30.09 0.00 77.2 84.5 21.5
UH Manoa Atmospheric Sciences 8/12/22 1030 82.9 59 67.0 7.7 NE | 54 18.8 0.00 833 85.5 30.09 0.00 77.2 84.5 21.5
UH Manoa Atmospheric Sciences 8/12/22 1015 82.6 58 66.4 9.0 NE | 42 18.4 0.00 783 84.9 30.10 0.00 77.2 83.5 21.5
UH Manoa Atmospheric Sciences 8/12/22 1000 82.1 59 66.5 6.1 NE | 51 13.3 0.00 671 84.4 30.10 0.00 77.2 83.1 21.5
UH Manoa Atmospheric Sciences 8/12/22 0945 81.3 61 66.7 10.1 NE | 40 21.5 0.00 563 83.7 30.10 0.00 77.2 82.0 21.5
UH Manoa Atmospheric Sciences 8/12/22 0930 81.4 63 67.7 8.8 NE | 48 17.8 0.00 672 84.1 30.10 0.00 77.2 82.0 19.8
UH Manoa Atmospheric Sciences 8/12/22 0915 81.2 65 68.2 7.9 NE | 49 18.4 0.00 604 84.0 30.10 0.00 77.2 82.0 19.8
UH Manoa Atmospheric Sciences 8/12/22 0900 81.3 65 68.5 6.0 NE | 46 18.6 0.00 562 84.3 30.10 0.00 77.2 81.8 19.8
UH Manoa Atmospheric Sciences 8/12/22 0845 80.6 65 67.8 4.3 NE | 56 11.0 0.00 357 83.3 30.10 0.00 77.2 81.2 19.8
UH Manoa Atmospheric Sciences 8/12/22 0830 80.8 65 67.9 4.5 NE | 54 13.5 0.00 352 83.5 30.10 0.00 77.2 81.2 19.8
UH Manoa Atmospheric Sciences 8/12/22 0815 80.2 67 68.1 3.8 ENE | 61 8.0 0.00 354 81.9 30.10 0.00 77.2 80.9 19.8
UH Manoa Atmospheric Sciences 8/12/22 0800 79.5 68 68.0 3.6 ENE | 62 9.8 0.00 284 79.5 30.09 0.00 77.2 80.0 19.8
UH Manoa Atmospheric Sciences 8/12/22 0745 78.8 69 67.9 3.5 ENE | 67 10.0 0.00 212 78.8 30.09 0.00 77.2 79.4 19.8
UH Manoa Atmospheric Sciences 8/12/22 0730 78.3 69 67.5 5.8 ENE | 60 13.5 0.00 193 78.3 30.09 0.00 77.2 79.0 19.8
UH Manoa Atmospheric Sciences 8/12/22 0715 77.8 70 67.5 4.2 ENE | 72 9.9 0.00 70 77.8 30.10 0.00 77.2 78.7 19.8
UH Manoa Atmospheric Sciences 8/12/22 0700 77.8 71 67.9 4.4 ENE | 69 12.7 0.00 47 77.8 30.09 0.00 77.2 78.7 19.8
UH Manoa Atmospheric Sciences 8/12/22 0645 77.8 72 68.0 4.0 ENE | 66 16.5 0.00 43 77.8 30.09 0.00 77.2 78.7 19.8
UH Manoa Atmospheric Sciences 8/12/22 0630 77.6 72 68.0 3.7 ENE | 61 10.1 0.00 12 77.6 30.09 0.00 77.2 78.7 19.8
UH Manoa Atmospheric Sciences 8/12/22 0615 77.6 72 68.1 4.0 ENE | 61 8.9 0.00 3 77.6 30.08 0.00 77.2 78.7 19.8
UH Manoa Atmospheric Sciences 8/12/22 0600 77.7 72 68.0 4.4 ENE | 63 9.0 0.00 0 77.7 30.09 0.00 77.2 78.7 19.8
UH Manoa Atmospheric Sciences 8/12/22 0545 77.6 72 67.9 4.9 ENE | 69 14.0 0.00 0 77.6 30.08 0.00 77.2 78.7 19.8
UH Manoa Atmospheric Sciences 8/12/22 0530 77.5 72 67.6 4.1 E | 80 9.4 0.00 0 77.5 30.08 0.00 77.2 78.7 19.8
UH Manoa Atmospheric Sciences 8/12/22 0515 77.4 72 67.6 4.5 ENE | 59 11.2 0.00 0 77.4 30.08 0.00 77.2 78.7 19.8
UH Manoa Atmospheric Sciences 8/12/22 0500 77.5 71 67.5 3.5 ENE | 73 10.1 0.00 0 77.5 30.08 0.00 77.2 78.7 19.8
UH Manoa Atmospheric Sciences 8/12/22 0445 77.5 70 67.1 7.6 ENE | 72 15.6 0.00 0 77.5 30.08 0.00 77.2 78.7 19.8
UH Manoa Atmospheric Sciences 8/12/22 0430 77.4 71 67.1 5.5 ENE | 70 12.3 0.00 0 77.4 30.07 0.00 77.2 78.7 19.8
UH Manoa Atmospheric Sciences 8/12/22 0415 77.6 71 67.3 4.2 ENE | 65 8.0 0.00 0 77.6 30.08 0.00 77.4 78.7 19.8
UH Manoa Atmospheric Sciences 8/12/22 0400 77.6 71 67.4 4.8 ENE | 69 11.2 0.00 0 77.6 30.07 0.00 77.4 78.7 19.8
UH Manoa Atmospheric Sciences 8/12/22 0345 77.8 70 67.3 6.8 ENE | 69 13.6 0.00 0 77.8 30.07 0.00 77.7 78.7 19.8
UH Manoa Atmospheric Sciences 8/12/22 0330 77.9 71 67.7 8.7 ENE | 60 19.8 0.00 0 77.9 30.07 0.00 77.7 78.7 19.8
UH Manoa Atmospheric Sciences 8/12/22 0315 78.1 74 69.0 8.2 NE | 52 19.8 0.00 0 78.1 30.07 0.00 77.8 78.7 19.8
UH Manoa Atmospheric Sciences 8/12/22 0300 78.1 73 68.8 2.6 ENE | 74 6.3 0.00 0 78.1 30.08 0.00 77.8 78.7 15.5
UH Manoa Atmospheric Sciences 8/12/22 0245 78.0 73 68.8 5.2 ENE | 76 10.0 0.00 0 78.0 30.09 0.00 77.8 78.7 15.5
UH Manoa Atmospheric Sciences 8/12/22 0230 78.0 74 69.0 5.7 ENE | 68 13.0 0.00 0 78.0 30.09 0.00 77.9 78.7 15.5
UH Manoa Atmospheric Sciences 8/12/22 0215 78.2 73 69.0 3.8 ENE | 69 8.8 0.00 0 78.2 30.10 0.00 78.1 78.7 15.5
UH Manoa Atmospheric Sciences 8/12/22 0200 78.2 73 68.9 4.8 ENE | 69 10.4 0.00 0 78.2 30.10 0.00 78.2 78.7 15.5
UH Manoa Atmospheric Sciences 8/12/22 0145 78.2 73 68.9 5.4 ENE | 73 10.9 0.00 0 78.2 30.10 0.00 78.2 78.7 15.5
UH Manoa Atmospheric Sciences 8/12/22 0130 78.4 72 68.8 5.6 ENE | 67 12.7 0.00 0 78.4 30.11 0.00 78.2 78.7 15.5
UH Manoa Atmospheric Sciences 8/12/22 0115 78.3 72 68.7 6.2 ENE | 64 12.7 0.00 0 78.3 30.11 0.00 78.2 78.7 15.5
UH Manoa Atmospheric Sciences 8/12/22 0100 78.4 72 68.7 7.0 ENE | 70 14.5 0.00 0 78.4 30.12 0.00 78.2 78.7 15.5
UH Manoa Atmospheric Sciences 8/12/22 0045 78.5 72 68.7 5.0 ENE | 65 11.2 0.00 0 78.5 30.12 0.00 78.3 78.7 15.5
UH Manoa Atmospheric Sciences 8/12/22 0030 78.4 72 68.6 7.4 ENE | 69 15.5 0.00 0 78.4 30.13 0.00 78.3 78.7 15.5
UH Manoa Atmospheric Sciences 8/12/22 0015 78.5 72 68.7 6.4 ENE | 67 13.3 0.00 0 78.5 30.13 0.00 78.3 78.7 13.3
UH Manoa Atmospheric Sciences 8/12/22 0000 78.6 71 68.5 7.9 ENE | 77 16.5 0.00 0 78.6 30.14 0.00 78.3 85.6 27.5
UH Manoa Atmospheric Sciences 8/11/22 2345 78.7 71 68.7 8.1 ENE | 68 15.3 0.00 0 78.7 30.14 0.00 78.4 85.6 27.5
UH Manoa Atmospheric Sciences 8/11/22 2330 78.6 72 68.8 7.5 ENE | 62 14.8 0.00 0 78.6 30.14 0.00 78.4 85.6 27.5
UH Manoa Atmospheric Sciences 8/11/22 2315 78.7 72 69.0 7.8 ENE | 57 17.2 0.00 0 78.7 30.15 0.00 78.4 85.6 27.5
UH Manoa Atmospheric Sciences 8/11/22 2300 78.8 72 69.0 7.2 ENE | 62 14.0 0.00 0 78.8 30.15 0.00 78.4 85.6 27.5
UH Manoa Atmospheric Sciences 8/11/22 2245 79.0 71 69.0 8.4 ENE | 63 14.9 0.00 0 79.0 30.15 0.00 78.4 85.6 27.5
UH Manoa Atmospheric Sciences 8/11/22 2230 78.9 72 69.0 10.2 ENE | 64 19.6 0.00 0 78.9 30.15 0.00 78.4 85.6 27.5
UH Manoa Atmospheric Sciences 8/11/22 2215 78.8 72 69.1 7.9 ENE | 67 15.0 0.00 0 78.8 30.15 0.00 78.4 85.6 27.5
UH Manoa Atmospheric Sciences 8/11/22 2200 79.0 72 69.0 6.3 ENE | 65 16.8 0.00 0 79.0 30.15 0.00 78.4 85.6 27.5
UH Manoa Atmospheric Sciences 8/11/22 2145 79.1 72 69.1 7.4 NE | 56 13.5 0.00 0 79.1 30.14 0.00 78.4 85.6 27.5
UH Manoa Atmospheric Sciences 8/11/22 2130 79.0 72 69.0 7.9 ENE | 67 18.7 0.00 0 79.0 30.14 0.00 78.4 85.6 27.5
UH Manoa Atmospheric Sciences 8/11/22 2115 78.9 72 69.0 9.4 ENE | 57 17.3 0.00 0 78.9 30.13 0.00 78.4 85.6 27.5
UH Manoa Atmospheric Sciences 8/11/22 2100 79.0 71 69.0 7.8 ENE | 60 15.7 0.00 0 79.0 30.13 0.00 78.4 85.6 27.5
UH Manoa Atmospheric Sciences 8/11/22 2045 78.9 71 68.8 8.7 ENE | 69 16.1 0.00 0 78.9 30.13 0.00 78.4 85.6 27.5
UH Manoa Atmospheric Sciences 8/11/22 2030 78.9 71 68.8 7.7 ENE | 63 14.7 0.00 0 78.9 30.13 0.00 78.4 85.6 27.5
UH Manoa Atmospheric Sciences 8/11/22 2015 79.0 70 68.6 9.1 ENE | 66 19.3 0.00 0 79.0 30.12 0.00 78.4 85.6 27.5
UH Manoa Atmospheric Sciences 8/11/22 2000 79.1 70 68.5 7.6 ENE | 67 15.0 0.00 0 79.1 30.12 0.00 78.4 85.6 27.5
UH Manoa Atmospheric Sciences 8/11/22 1945 79.2 70 68.6 7.4 ENE | 63 17.4 0.00 0 79.2 30.11 0.00 78.4 85.6 27.5
UH Manoa Atmospheric Sciences 8/11/22 1930 79.4 71 69.2 6.2 ENE | 64 13.6 0.00 0 79.4 30.11 0.00 78.4 85.6 27.5
UH Manoa Atmospheric Sciences 8/11/22 1915 79.5 70 69.0 8.2 ENE | 60 17.5 0.00 0 79.5 30.10 0.00 78.4 85.6 27.5
UH Manoa Atmospheric Sciences 8/11/22 1900 79.8 70 69.0 8.9 NE | 55 15.7 0.00 12 80.5 30.10 0.00 78.4 85.6 27.5
UH Manoa Atmospheric Sciences 8/11/22 1845 80.3 70 69.5 9.1 ENE | 57 18.3 0.00 31 83.4 30.09 0.00 78.4 85.6 27.5
UH Manoa Atmospheric Sciences 8/11/22 1830 80.9 69 69.8 9.7 ENE | 60 23.0 0.00 117 84.3 30.09 0.00 78.4 85.6 27.5
UH Manoa Atmospheric Sciences 8/11/22 1815 81.2 68 69.8 9.2 ENE | 59 16.8 0.00 168 84.7 30.09 0.00 78.4 85.6 27.5
UH Manoa Atmospheric Sciences 8/11/22 1800 81.6 67 69.7 8.4 ENE | 58 19.2 0.00 236 85.1 30.09 0.00 78.4 85.6 27.5
UH Manoa Atmospheric Sciences 8/11/22 1745 81.8 65 69.0 8.9 ENE | 57 17.8 0.00 320 85.1 30.09 0.00 78.4 85.6 27.5
UH Manoa Atmospheric Sciences 8/11/22 1730 81.5 66 69.0 9.3 NE | 51 18.3 0.00 316 84.7 30.09 0.00 78.4 85.6 27.5
UH Manoa Atmospheric Sciences 8/11/22 1715 81.9 65 68.9 8.2 ENE | 65 18.5 0.00 273 85.2 30.09 0.00 78.4 85.6 27.5
UH Manoa Atmospheric Sciences 8/11/22 1700 82.3 64 68.9 10.5 NE | 53 25.1 0.00 382 85.7 30.09 0.00 78.4 85.6 27.5
UH Manoa Atmospheric Sciences 8/11/22 1645 82.8 63 68.8 8.1 NE | 55 19.3 0.00 488 86.3 30.09 0.00 78.4 85.6 27.5
UH Manoa Atmospheric Sciences 8/11/22 1630 82.7 62 68.2 10.5 NE | 53 22.8 0.00 523 85.7 30.08 0.00 78.4 85.6 27.5
UH Manoa Atmospheric Sciences 8/11/22 1615 82.8 61 67.8 11.2 ENE | 58 23.8 0.00 606 85.8 30.09 0.00 78.4 85.6 27.5
Max     83.5 74 69.8 16.0 - 28.4 0.00 1,039 86.3 30.15 0.00 78.4 85.6 28.4
Avg     80.1 67 68.1 8.2 - 17.0 0.00 315 81.4 30.09 - - - -
Min     77.4 57 66.4 2.6 - 6.3 0.00 0 77.4 30.02 0.00 77.2 78.7 13.3